sensor_id;sensor_type;location;lat;lon;timestamp;pressure;altitude;pressure_sealevel;temperature;humidity
11347;BME280;5728;42.722;23.258;2023-01-28T00:01:18;94127.75;;;0.34;97.82
11347;BME280;5728;42.722;23.258;2023-01-28T00:03:48;94128.72;;;0.45;98.04
11347;BME280;5728;42.722;23.258;2023-01-28T00:06:15;94127.97;;;0.52;97.57
11347;BME280;5728;42.722;23.258;2023-01-28T00:08:43;94135.53;;;0.48;97.45
11347;BME280;5728;42.722;23.258;2023-01-28T00:11:11;94134.00;;;0.57;97.73
11347;BME280;5728;42.722;23.258;2023-01-28T00:13:40;94147.66;;;0.64;97.82
11347;BME280;5728;42.722;23.258;2023-01-28T00:16:07;94154.41;;;0.60;96.42
11347;BME280;5728;42.722;23.258;2023-01-28T00:18:35;94153.25;;;0.36;96.80
11347;BME280;5728;42.722;23.258;2023-01-28T00:21:03;94151.53;;;0.33;96.54
11347;BME280;5728;42.722;23.258;2023-01-28T00:23:32;94152.53;;;0.46;97.85
11347;BME280;5728;42.722;23.258;2023-01-28T00:25:59;94155.81;;;0.36;98.12
11347;BME280;5728;42.722;23.258;2023-01-28T00:28:26;94145.78;;;0.49;97.32
11347;BME280;5728;42.722;23.258;2023-01-28T00:30:54;94155.53;;;0.84;97.77
11347;BME280;5728;42.722;23.258;2023-01-28T00:33:21;94159.59;;;0.67;97.24
11347;BME280;5728;42.722;23.258;2023-01-28T00:35:56;94157.94;;;0.73;97.84
11347;BME280;5728;42.722;23.258;2023-01-28T00:38:24;94163.88;;;0.69;97.02
11347;BME280;5728;42.722;23.258;2023-01-28T00:40:50;94149.34;;;0.63;97.79
11347;BME280;5728;42.722;23.258;2023-01-28T00:43:17;94160.13;;;0.41;97.41
11347;BME280;5728;42.722;23.258;2023-01-28T00:45:44;94164.69;;;0.67;98.66
11347;BME280;5728;42.722;23.258;2023-01-28T00:48:12;94172.06;;;0.45;98.38
11347;BME280;5728;42.722;23.258;2023-01-28T00:50:38;94167.34;;;0.76;99.30
11347;BME280;5728;42.722;23.258;2023-01-28T00:53:05;94172.44;;;0.73;97.21
11347;BME280;5728;42.722;23.258;2023-01-28T00:55:32;94170.38;;;0.44;96.48
11347;BME280;5728;42.722;23.258;2023-01-28T00:57:59;94168.25;;;0.78;97.75
11347;BME280;5728;42.722;23.258;2023-01-28T01:00:25;94174.22;;;0.81;97.93
11347;BME280;5728;42.722;23.258;2023-01-28T01:02:52;94172.38;;;0.71;97.44
11347;BME280;5728;42.722;23.258;2023-01-28T01:05:20;94173.25;;;0.72;96.63
11347;BME280;5728;42.722;23.258;2023-01-28T01:07:47;94169.19;;;0.89;97.32
11347;BME280;5728;42.722;23.258;2023-01-28T01:10:15;94162.41;;;0.88;96.59
11347;BME280;5728;42.722;23.258;2023-01-28T01:12:44;94172.25;;;0.59;96.99
11347;BME280;5728;42.722;23.258;2023-01-28T01:15:12;94181.72;;;0.71;97.38
11347;BME280;5728;42.722;23.258;2023-01-28T01:17:40;94170.75;;;0.75;96.51
11347;BME280;5728;42.722;23.258;2023-01-28T01:20:11;94171.34;;;0.55;96.73
11347;BME280;5728;42.722;23.258;2023-01-28T01:22:39;94176.44;;;0.54;96.98
11347;BME280;5728;42.722;23.258;2023-01-28T01:25:07;94173.91;;;0.55;97.78
11347;BME280;5728;42.722;23.258;2023-01-28T01:27:34;94172.38;;;0.70;98.52
11347;BME280;5728;42.722;23.258;2023-01-28T01:30:01;94179.75;;;0.48;97.33
11347;BME280;5728;42.722;23.258;2023-01-28T01:32:29;94175.38;;;0.38;98.43
11347;BME280;5728;42.722;23.258;2023-01-28T01:34:55;94176.69;;;0.74;98.93
11347;BME280;5728;42.722;23.258;2023-01-28T01:37:22;94177.72;;;0.91;97.38
11347;BME280;5728;42.722;23.258;2023-01-28T01:39:50;94183.31;;;0.61;96.88
11347;BME280;5728;42.722;23.258;2023-01-28T01:42:17;94187.56;;;0.60;97.01
11347;BME280;5728;42.722;23.258;2023-01-28T01:44:55;94182.31;;;0.48;97.27
11347;BME280;5728;42.722;23.258;2023-01-28T01:47:24;94182.72;;;0.80;98.32
11347;BME280;5728;42.722;23.258;2023-01-28T01:49:53;94189.44;;;0.74;97.67
11347;BME280;5728;42.722;23.258;2023-01-28T01:52:23;94192.66;;;0.60;97.29
11347;BME280;5728;42.722;23.258;2023-01-28T01:54:55;94180.38;;;0.31;96.77
11347;BME280;5728;42.722;23.258;2023-01-28T01:57:27;94181.19;;;0.28;97.90
11347;BME280;5728;42.722;23.258;2023-01-28T01:59:55;94182.09;;;0.32;98.23
11347;BME280;5728;42.722;23.258;2023-01-28T02:02:32;94184.50;;;0.20;98.47
11347;BME280;5728;42.722;23.258;2023-01-28T02:05:00;94192.16;;;0.21;98.95
11347;BME280;5728;42.722;23.258;2023-01-28T02:07:26;94185.53;;;0.35;99.04
11347;BME280;5728;42.722;23.258;2023-01-28T02:09:55;94185.38;;;0.23;98.28
11347;BME280;5728;42.722;23.258;2023-01-28T02:12:23;94206.63;;;0.24;97.44
11347;BME280;5728;42.722;23.258;2023-01-28T02:14:55;94201.94;;;0.52;98.29
11347;BME280;5728;42.722;23.258;2023-01-28T02:17:24;94197.38;;;0.30;97.55
11347;BME280;5728;42.722;23.258;2023-01-28T02:19:55;94200.97;;;0.44;97.72
11347;BME280;5728;42.722;23.258;2023-01-28T02:22:33;94195.72;;;0.32;98.05
11347;BME280;5728;42.722;23.258;2023-01-28T02:25:34;94197.50;;;0.39;97.96
11347;BME280;5728;42.722;23.258;2023-01-28T02:28:22;94219.75;;;0.49;97.32
11347;BME280;5728;42.722;23.258;2023-01-28T02:30:52;94191.78;;;0.58;97.99
11347;BME280;5728;42.722;23.258;2023-01-28T02:33:28;94206.38;;;0.69;95.79
11347;BME280;5728;42.722;23.258;2023-01-28T02:35:57;94194.19;;;0.46;96.47
11347;BME280;5728;42.722;23.258;2023-01-28T02:38:31;94192.75;;;0.67;96.26
11347;BME280;5728;42.722;23.258;2023-01-28T02:41:03;94200.84;;;0.35;95.92
11347;BME280;5728;42.722;23.258;2023-01-28T02:43:35;94198.44;;;0.44;97.27
11347;BME280;5728;42.722;23.258;2023-01-28T02:46:11;94188.78;;;0.24;96.20
11347;BME280;5728;42.722;23.258;2023-01-28T02:48:53;94212.28;;;0.66;96.63
11347;BME280;5728;42.722;23.258;2023-01-28T02:51:26;94201.63;;;0.99;97.21
11347;BME280;5728;42.722;23.258;2023-01-28T02:54:00;94200.25;;;0.54;95.55
11347;BME280;5728;42.722;23.258;2023-01-28T02:56:31;94197.84;;;0.67;94.12
11347;BME280;5728;42.722;23.258;2023-01-28T02:59:10;94206.94;;;0.45;94.97
11347;BME280;5728;42.722;23.258;2023-01-28T03:02:00;94209.19;;;0.25;95.65
11347;BME280;5728;42.722;23.258;2023-01-28T03:04:32;94210.00;;;0.20;97.38
11347;BME280;5728;42.722;23.258;2023-01-28T03:07:04;94209.81;;;0.09;96.51
11347;BME280;5728;42.722;23.258;2023-01-28T03:09:33;94215.75;;;0.08;97.33
11347;BME280;5728;42.722;23.258;2023-01-28T03:12:04;94214.00;;;0.06;97.18
11347;BME280;5728;42.722;23.258;2023-01-28T03:14:53;94215.78;;;0.11;97.59
11347;BME280;5728;42.722;23.258;2023-01-28T03:17:42;94214.09;;;0.12;97.39
11347;BME280;5728;42.722;23.258;2023-01-28T03:20:33;94219.06;;;0.03;97.62
11347;BME280;5728;42.722;23.258;2023-01-28T03:23:22;94216.66;;;0.12;97.87
11347;BME280;5728;42.722;23.258;2023-01-28T03:26:11;94230.97;;;0.05;98.26
11347;BME280;5728;42.722;23.258;2023-01-28T03:29:05;94214.13;;;0.13;98.24
11347;BME280;5728;42.722;23.258;2023-01-28T03:31:53;94221.81;;;0.18;98.47
11347;BME280;5728;42.722;23.258;2023-01-28T03:34:39;94213.84;;;0.53;97.19
11347;BME280;5728;42.722;23.258;2023-01-28T03:37:23;94227.94;;;0.27;97.03
11347;BME280;5728;42.722;23.258;2023-01-28T03:39:51;94226.88;;;0.13;97.31
11347;BME280;5728;42.722;23.258;2023-01-28T03:42:22;94220.81;;;0.07;97.70
11347;BME280;5728;42.722;23.258;2023-01-28T03:44:49;94210.66;;;0.08;98.02
11347;BME280;5728;42.722;23.258;2023-01-28T03:47:22;94225.06;;;0.05;96.81
11347;BME280;5728;42.722;23.258;2023-01-28T03:49:50;94221.00;;;0.17;97.14
11347;BME280;5728;42.722;23.258;2023-01-28T03:52:20;94232.22;;;-0.24;97.40
11347;BME280;5728;42.722;23.258;2023-01-28T03:54:47;94221.97;;;-0.27;98.11
11347;BME280;5728;42.722;23.258;2023-01-28T03:57:14;94250.19;;;-0.18;98.75
11347;BME280;5728;42.722;23.258;2023-01-28T03:59:41;94249.50;;;-0.07;98.29
11347;BME280;5728;42.722;23.258;2023-01-28T04:02:09;94228.22;;;-0.10;98.29
11347;BME280;5728;42.722;23.258;2023-01-28T04:04:38;94241.03;;;-0.04;98.81
11347;BME280;5728;42.722;23.258;2023-01-28T04:07:05;94238.56;;;0.00;98.67
11347;BME280;5728;42.722;23.258;2023-01-28T04:09:33;94235.78;;;-0.15;98.04
11347;BME280;5728;42.722;23.258;2023-01-28T04:12:00;94244.22;;;-0.19;98.91
11347;BME280;5728;42.722;23.258;2023-01-28T04:14:27;94226.69;;;0.01;98.63
11347;BME280;5728;42.722;23.258;2023-01-28T04:16:54;94237.31;;;-0.26;98.44
11347;BME280;5728;42.722;23.258;2023-01-28T04:19:21;94247.06;;;-0.01;98.82
11347;BME280;5728;42.722;23.258;2023-01-28T04:21:49;94247.75;;;-0.11;98.46
11347;BME280;5728;42.722;23.258;2023-01-28T04:24:18;94258.06;;;-0.03;98.92
11347;BME280;5728;42.722;23.258;2023-01-28T04:26:45;94247.75;;;-0.09;98.55
11347;BME280;5728;42.722;23.258;2023-01-28T04:29:12;94255.66;;;0.08;98.44
11347;BME280;5728;42.722;23.258;2023-01-28T04:31:39;94261.63;;;0.08;98.72
11347;BME280;5728;42.722;23.258;2023-01-28T04:34:05;94256.28;;;-0.07;99.14
11347;BME280;5728;42.722;23.258;2023-01-28T04:36:33;94267.53;;;0.06;99.27
11347;BME280;5728;42.722;23.258;2023-01-28T04:39:01;94268.34;;;0.03;99.40
11347;BME280;5728;42.722;23.258;2023-01-28T04:41:28;94251.41;;;0.08;99.17
11347;BME280;5728;42.722;23.258;2023-01-28T04:43:54;94272.00;;;0.20;98.00
11347;BME280;5728;42.722;23.258;2023-01-28T04:46:21;94273.16;;;-0.15;98.90
11347;BME280;5728;42.722;23.258;2023-01-28T04:48:48;94276.03;;;0.08;99.79
11347;BME280;5728;42.722;23.258;2023-01-28T04:51:14;94278.44;;;-0.03;99.69
11347;BME280;5728;42.722;23.258;2023-01-28T04:53:41;94282.63;;;-0.08;99.79
11347;BME280;5728;42.722;23.258;2023-01-28T04:56:09;94282.00;;;0.08;99.33
11347;BME280;5728;42.722;23.258;2023-01-28T04:58:36;94278.72;;;0.15;98.82
11347;BME280;5728;42.722;23.258;2023-01-28T05:01:03;94289.22;;;-0.19;98.50
11347;BME280;5728;42.722;23.258;2023-01-28T05:03:29;94291.88;;;-0.12;98.84
11347;BME280;5728;42.722;23.258;2023-01-28T05:05:56;94291.81;;;-0.15;99.25
11347;BME280;5728;42.722;23.258;2023-01-28T05:08:23;94287.50;;;-0.20;99.31
11347;BME280;5728;42.722;23.258;2023-01-28T05:10:49;94294.09;;;-0.31;100.00
11347;BME280;5728;42.722;23.258;2023-01-28T05:13:17;94293.88;;;0.06;100.00
11347;BME280;5728;42.722;23.258;2023-01-28T05:15:49;94302.19;;;-0.04;100.00
11347;BME280;5728;42.722;23.258;2023-01-28T05:18:15;94302.13;;;-0.09;99.17
11347;BME280;5728;42.722;23.258;2023-01-28T05:20:42;94305.06;;;0.14;99.75
11347;BME280;5728;42.722;23.258;2023-01-28T05:23:08;94314.19;;;0.00;99.09
11347;BME280;5728;42.722;23.258;2023-01-28T05:25:35;94309.88;;;-0.03;99.23
11347;BME280;5728;42.722;23.258;2023-01-28T05:28:01;94310.63;;;-0.08;99.15
11347;BME280;5728;42.722;23.258;2023-01-28T05:30:29;94309.47;;;0.24;99.03
11347;BME280;5728;42.722;23.258;2023-01-28T05:32:56;94307.44;;;0.05;98.13
11347;BME280;5728;42.722;23.258;2023-01-28T05:35:22;94312.53;;;0.05;98.63
11347;BME280;5728;42.722;23.258;2023-01-28T05:37:49;94310.78;;;0.01;97.92
11347;BME280;5728;42.722;23.258;2023-01-28T05:40:15;94315.31;;;0.19;96.86
11347;BME280;5728;42.722;23.258;2023-01-28T05:42:42;94321.09;;;0.07;96.94
11347;BME280;5728;42.722;23.258;2023-01-28T05:45:09;94321.50;;;-0.18;96.58
11347;BME280;5728;42.722;23.258;2023-01-28T05:47:37;94317.28;;;-0.16;97.26
11347;BME280;5728;42.722;23.258;2023-01-28T05:50:04;94327.50;;;-0.15;97.78
11347;BME280;5728;42.722;23.258;2023-01-28T05:52:30;94315.56;;;-0.17;97.90
11347;BME280;5728;42.722;23.258;2023-01-28T05:54:57;94320.66;;;-0.17;97.83
11347;BME280;5728;42.722;23.258;2023-01-28T05:57:23;94332.63;;;-0.13;98.46
11347;BME280;5728;42.722;23.258;2023-01-28T05:59:50;94325.81;;;-0.14;97.72
11347;BME280;5728;42.722;23.258;2023-01-28T06:02:16;94328.16;;;-0.25;97.86
11347;BME280;5728;42.722;23.258;2023-01-28T06:04:44;94336.22;;;-0.02;97.92
11347;BME280;5728;42.722;23.258;2023-01-28T06:07:11;94340.88;;;-0.26;97.81
11347;BME280;5728;42.722;23.258;2023-01-28T06:09:39;94345.91;;;-0.31;98.32
11347;BME280;5728;42.722;23.258;2023-01-28T06:12:06;94340.94;;;-0.23;98.86
11347;BME280;5728;42.722;23.258;2023-01-28T06:14:33;94302.47;;;-0.37;98.74
11347;BME280;5728;42.722;23.258;2023-01-28T06:17:00;94352.16;;;-0.12;97.35
11347;BME280;5728;42.722;23.258;2023-01-28T06:19:27;94362.09;;;0.21;97.38
11347;BME280;5728;42.722;23.258;2023-01-28T06:21:55;94362.69;;;0.06;97.16
11347;BME280;5728;42.722;23.258;2023-01-28T06:24:24;94355.22;;;0.17;96.30
11347;BME280;5728;42.722;23.258;2023-01-28T06:26:51;94355.97;;;0.11;96.29
11347;BME280;5728;42.722;23.258;2023-01-28T06:29:17;94373.00;;;0.12;97.32
11347;BME280;5728;42.722;23.258;2023-01-28T06:31:44;94392.44;;;0.07;96.98
11347;BME280;5728;42.722;23.258;2023-01-28T06:34:11;94374.22;;;-0.14;96.98
11347;BME280;5728;42.722;23.258;2023-01-28T06:36:38;94379.72;;;0.09;96.98
11347;BME280;5728;42.722;23.258;2023-01-28T06:39:06;94375.63;;;0.18;96.77
11347;BME280;5728;42.722;23.258;2023-01-28T06:41:33;94368.50;;;-0.01;96.01
11347;BME280;5728;42.722;23.258;2023-01-28T06:44:00;94398.81;;;-0.15;97.38
11347;BME280;5728;42.722;23.258;2023-01-28T06:46:26;94396.16;;;0.24;98.27
11347;BME280;5728;42.722;23.258;2023-01-28T06:48:53;94394.16;;;0.08;97.39
11347;BME280;5728;42.722;23.258;2023-01-28T06:51:20;94419.22;;;0.33;97.21
11347;BME280;5728;42.722;23.258;2023-01-28T06:53:47;94410.22;;;0.53;96.44
11347;BME280;5728;42.722;23.258;2023-01-28T06:56:15;94371.09;;;0.51;95.59
11347;BME280;5728;42.722;23.258;2023-01-28T06:58:42;94406.41;;;0.81;95.93
11347;BME280;5728;42.722;23.258;2023-01-28T07:01:09;94416.94;;;0.48;95.12
11347;BME280;5728;42.722;23.258;2023-01-28T07:03:36;94413.44;;;0.42;95.65
11347;BME280;5728;42.722;23.258;2023-01-28T07:06:03;94416.00;;;0.42;95.55
11347;BME280;5728;42.722;23.258;2023-01-28T07:08:29;94421.47;;;0.15;95.66
11347;BME280;5728;42.722;23.258;2023-01-28T07:10:57;94423.41;;;0.28;96.87
11347;BME280;5728;42.722;23.258;2023-01-28T07:13:26;94429.88;;;0.11;96.44
11347;BME280;5728;42.722;23.258;2023-01-28T07:15:53;94429.00;;;0.09;97.25
11347;BME280;5728;42.722;23.258;2023-01-28T07:18:19;94430.22;;;0.29;97.81
11347;BME280;5728;42.722;23.258;2023-01-28T07:20:46;94439.97;;;0.05;97.15
11347;BME280;5728;42.722;23.258;2023-01-28T07:23:13;94442.63;;;0.10;96.89
11347;BME280;5728;42.722;23.258;2023-01-28T07:25:40;94437.69;;;0.20;96.53
11347;BME280;5728;42.722;23.258;2023-01-28T07:28:06;94442.84;;;0.22;96.13
11347;BME280;5728;42.722;23.258;2023-01-28T07:30:35;94452.31;;;0.30;96.73
11347;BME280;5728;42.722;23.258;2023-01-28T07:33:01;94445.38;;;0.22;95.64
11347;BME280;5728;42.722;23.258;2023-01-28T07:35:28;94450.09;;;0.48;96.91
11347;BME280;5728;42.722;23.258;2023-01-28T07:37:58;94455.78;;;0.32;96.01
11347;BME280;5728;42.722;23.258;2023-01-28T07:40:26;94448.59;;;0.59;96.02
11347;BME280;5728;42.722;23.258;2023-01-28T07:42:53;94456.13;;;0.53;95.00
11347;BME280;5728;42.722;23.258;2023-01-28T07:45:22;94456.31;;;0.62;95.17
11347;BME280;5728;42.722;23.258;2023-01-28T07:47:54;94456.38;;;0.69;95.04
11347;BME280;5728;42.722;23.258;2023-01-28T07:50:21;94465.53;;;0.56;94.20
11347;BME280;5728;42.722;23.258;2023-01-28T07:52:48;94466.50;;;0.62;94.36
11347;BME280;5728;42.722;23.258;2023-01-28T07:55:15;94490.47;;;0.72;94.02
11347;BME280;5728;42.722;23.258;2023-01-28T07:57:52;94462.28;;;0.64;94.18
11347;BME280;5728;42.722;23.258;2023-01-28T08:00:20;94466.34;;;0.53;93.54
11347;BME280;5728;42.722;23.258;2023-01-28T08:02:48;94475.03;;;0.64;93.24
11347;BME280;5728;42.722;23.258;2023-01-28T08:05:18;94486.19;;;0.70;93.90
11347;BME280;5728;42.722;23.258;2023-01-28T08:07:46;94481.75;;;0.59;93.56
11347;BME280;5728;42.722;23.258;2023-01-28T08:10:14;94486.94;;;0.65;93.52
11347;BME280;5728;42.722;23.258;2023-01-28T08:12:50;94479.28;;;0.62;94.39
11347;BME280;5728;42.722;23.258;2023-01-28T08:15:17;94484.88;;;0.43;94.22
11347;BME280;5728;42.722;23.258;2023-01-28T08:17:43;94479.75;;;0.43;93.61
11347;BME280;5728;42.722;23.258;2023-01-28T08:20:11;94500.91;;;0.38;94.15
11347;BME280;5728;42.722;23.258;2023-01-28T08:22:39;94501.31;;;0.60;95.31
11347;BME280;5728;42.722;23.258;2023-01-28T08:25:06;94488.75;;;0.70;93.69
11347;BME280;5728;42.722;23.258;2023-01-28T08:27:33;94502.31;;;0.69;93.42
11347;BME280;5728;42.722;23.258;2023-01-28T08:30:00;94507.81;;;0.43;93.59
11347;BME280;5728;42.722;23.258;2023-01-28T08:32:27;94500.41;;;0.57;94.03
11347;BME280;5728;42.722;23.258;2023-01-28T08:34:54;94484.31;;;0.59;94.05
11347;BME280;5728;42.722;23.258;2023-01-28T08:37:21;94490.00;;;0.96;93.57
11347;BME280;5728;42.722;23.258;2023-01-28T08:39:49;94496.09;;;1.04;93.16
11347;BME280;5728;42.722;23.258;2023-01-28T08:42:16;94494.88;;;1.36;93.06
11347;BME280;5728;42.722;23.258;2023-01-28T08:44:43;94496.78;;;0.92;91.85
11347;BME280;5728;42.722;23.258;2023-01-28T08:47:10;94480.94;;;1.14;92.70
11347;BME280;5728;42.722;23.258;2023-01-28T08:49:36;94493.78;;;1.17;91.66
11347;BME280;5728;42.722;23.258;2023-01-28T08:52:04;94514.25;;;1.20;90.81
11347;BME280;5728;42.722;23.258;2023-01-28T08:54:31;94501.84;;;1.46;90.59
11347;BME280;5728;42.722;23.258;2023-01-28T08:56:59;94502.50;;;0.81;91.10
11347;BME280;5728;42.722;23.258;2023-01-28T08:59:26;94504.69;;;1.09;91.85
11347;BME280;5728;42.722;23.258;2023-01-28T09:01:53;94510.78;;;1.18;92.23
11347;BME280;5728;42.722;23.258;2023-01-28T09:04:19;94507.44;;;1.21;91.27
11347;BME280;5728;42.722;23.258;2023-01-28T09:06:46;94506.72;;;1.29;92.30
11347;BME280;5728;42.722;23.258;2023-01-28T09:09:13;94508.22;;;1.17;91.63
11347;BME280;5728;42.722;23.258;2023-01-28T09:11:40;94504.88;;;1.21;91.91
11347;BME280;5728;42.722;23.258;2023-01-28T09:14:08;94516.69;;;1.13;91.51
11347;BME280;5728;42.722;23.258;2023-01-28T09:16:34;94517.41;;;1.06;92.98
11347;BME280;5728;42.722;23.258;2023-01-28T09:19:01;94511.16;;;0.89;92.40
11347;BME280;5728;42.722;23.258;2023-01-28T09:21:28;94512.09;;;0.94;93.57
11347;BME280;5728;42.722;23.258;2023-01-28T09:23:54;94508.09;;;1.09;93.32
11347;BME280;5728;42.722;23.258;2023-01-28T09:26:22;94531.44;;;1.32;92.06
11347;BME280;5728;42.722;23.258;2023-01-28T09:28:49;94501.78;;;1.40;92.61
11347;BME280;5728;42.722;23.258;2023-01-28T09:31:17;94511.53;;;1.10;93.07
11347;BME280;5728;42.722;23.258;2023-01-28T09:33:46;94503.25;;;1.26;92.97
11347;BME280;5728;42.722;23.258;2023-01-28T09:36:12;94511.88;;;1.34;91.65
11347;BME280;5728;42.722;23.258;2023-01-28T09:38:39;94503.94;;;1.16;92.00
11347;BME280;5728;42.722;23.258;2023-01-28T09:41:27;94506.41;;;1.10;92.44
11347;BME280;5728;42.722;23.258;2023-01-28T09:44:17;94507.47;;;1.24;93.07
11347;BME280;5728;42.722;23.258;2023-01-28T09:46:47;94504.97;;;0.75;93.85
11347;BME280;5728;42.722;23.258;2023-01-28T09:49:19;94501.13;;;0.98;94.85
11347;BME280;5728;42.722;23.258;2023-01-28T09:51:49;94525.91;;;1.05;94.88
11347;BME280;5728;42.722;23.258;2023-01-28T09:54:27;94505.28;;;0.93;94.38
11347;BME280;5728;42.722;23.258;2023-01-28T09:57:02;94505.25;;;0.91;93.96
11347;BME280;5728;42.722;23.258;2023-01-28T09:59:33;94510.34;;;0.90;94.62
11347;BME280;5728;42.722;23.258;2023-01-28T10:02:14;94511.28;;;0.95;95.46
11347;BME280;5728;42.722;23.258;2023-01-28T10:04:57;94476.19;;;0.83;94.41
11347;BME280;5728;42.722;23.258;2023-01-28T10:07:31;94494.09;;;0.85;94.77
11347;BME280;5728;42.722;23.258;2023-01-28T10:10:02;94505.16;;;0.85;95.48
11347;BME280;5728;42.722;23.258;2023-01-28T10:12:50;94493.59;;;1.05;95.70
11347;BME280;5728;42.722;23.258;2023-01-28T10:15:29;94492.84;;;1.14;95.34
11347;BME280;5728;42.722;23.258;2023-01-28T10:18:05;94489.78;;;1.36;94.99
11347;BME280;5728;42.722;23.258;2023-01-28T10:20:37;94498.13;;;1.23;93.08
11347;BME280;5728;42.722;23.258;2023-01-28T10:23:13;94491.97;;;1.12;93.92
11347;BME280;5728;42.722;23.258;2023-01-28T10:25:42;94498.28;;;1.35;94.41
11347;BME280;5728;42.722;23.258;2023-01-28T10:28:20;94518.31;;;1.08;94.89
11347;BME280;5728;42.722;23.258;2023-01-28T10:30:48;94493.09;;;1.29;93.93
11347;BME280;5728;42.722;23.258;2023-01-28T10:33:18;94497.06;;;1.10;94.28
11347;BME280;5728;42.722;23.258;2023-01-28T10:35:46;94496.03;;;1.01;94.25
11347;BME280;5728;42.722;23.258;2023-01-28T10:38:15;94489.25;;;1.00;93.55
11347;BME280;5728;42.722;23.258;2023-01-28T10:40:43;94484.94;;;0.97;93.95
11347;BME280;5728;42.722;23.258;2023-01-28T10:43:14;94489.19;;;0.97;94.56
11347;BME280;5728;42.722;23.258;2023-01-28T10:45:47;94456.63;;;0.84;93.85
11347;BME280;5728;42.722;23.258;2023-01-28T10:48:21;94491.22;;;1.19;94.29
11347;BME280;5728;42.722;23.258;2023-01-28T10:50:49;94495.31;;;1.65;94.65
11347;BME280;5728;42.722;23.258;2023-01-28T10:53:16;94494.88;;;1.36;92.84
11347;BME280;5728;42.722;23.258;2023-01-28T10:55:48;94496.44;;;1.26;91.65
11347;BME280;5728;42.722;23.258;2023-01-28T10:58:20;94492.22;;;1.28;91.70
11347;BME280;5728;42.722;23.258;2023-01-28T11:00:52;94494.94;;;1.39;91.53
11347;BME280;5728;42.722;23.258;2023-01-28T11:03:20;94488.91;;;1.34;91.16
11347;BME280;5728;42.722;23.258;2023-01-28T11:05:50;94487.88;;;1.21;91.65
11347;BME280;5728;42.722;23.258;2023-01-28T11:08:18;94484.44;;;1.18;92.84
11347;BME280;5728;42.722;23.258;2023-01-28T11:10:46;94488.47;;;1.05;92.22
11347;BME280;5728;42.722;23.258;2023-01-28T11:13:19;94493.19;;;1.35;93.11
11347;BME280;5728;42.722;23.258;2023-01-28T11:15:47;94492.47;;;1.45;93.21
11347;BME280;5728;42.722;23.258;2023-01-28T11:18:17;94484.44;;;1.21;91.85
11347;BME280;5728;42.722;23.258;2023-01-28T11:20:52;94487.84;;;1.20;92.86
11347;BME280;5728;42.722;23.258;2023-01-28T11:23:22;94491.91;;;1.07;92.14
11347;BME280;5728;42.722;23.258;2023-01-28T11:25:58;94486.84;;;1.10;92.30
11347;BME280;5728;42.722;23.258;2023-01-28T11:28:27;94474.81;;;1.03;92.52
11347;BME280;5728;42.722;23.258;2023-01-28T11:30:57;94482.81;;;1.26;92.62
11347;BME280;5728;42.722;23.258;2023-01-28T11:33:31;94486.41;;;1.37;91.96
11347;BME280;5728;42.722;23.258;2023-01-28T11:36:05;94471.69;;;1.21;90.52
11347;BME280;5728;42.722;23.258;2023-01-28T11:38:32;94481.50;;;1.52;91.93
11347;BME280;5728;42.722;23.258;2023-01-28T11:40:59;94484.97;;;1.57;91.86
11347;BME280;5728;42.722;23.258;2023-01-28T11:43:28;94478.13;;;1.56;90.17
11347;BME280;5728;42.722;23.258;2023-01-28T11:46:07;94467.84;;;1.50;90.38
11347;BME280;5728;42.722;23.258;2023-01-28T11:48:41;94483.44;;;1.68;91.05
11347;BME280;5728;42.722;23.258;2023-01-28T11:51:26;94465.66;;;1.76;90.57
11347;BME280;5728;42.722;23.258;2023-01-28T11:54:17;94473.94;;;1.61;90.42
11347;BME280;5728;42.722;23.258;2023-01-28T11:57:02;94482.25;;;2.10;90.42
11347;BME280;5728;42.722;23.258;2023-01-28T12:00:02;94469.28;;;1.94;89.23
11347;BME280;5728;42.722;23.258;2023-01-28T12:02:45;94470.00;;;1.84;88.35
11347;BME280;5728;42.722;23.258;2023-01-28T12:05:38;94477.66;;;1.84;89.14
11347;BME280;5728;42.722;23.258;2023-01-28T12:08:09;94476.59;;;1.66;88.76
11347;BME280;5728;42.722;23.258;2023-01-28T12:10:47;94471.44;;;1.64;88.85
11347;BME280;5728;42.722;23.258;2023-01-28T12:13:40;94483.13;;;1.46;88.90
11347;BME280;5728;42.722;23.258;2023-01-28T12:16:30;94478.19;;;1.59;89.72
11347;BME280;5728;42.722;23.258;2023-01-28T12:19:23;94472.81;;;1.41;89.32
11347;BME280;5728;42.722;23.258;2023-01-28T12:22:12;94477.94;;;1.41;90.23
11347;BME280;5728;42.722;23.258;2023-01-28T12:24:57;94469.50;;;1.45;90.40
11347;BME280;5728;42.722;23.258;2023-01-28T12:27:34;94479.16;;;1.67;89.39
11347;BME280;5728;42.722;23.258;2023-01-28T12:30:16;94479.66;;;1.42;89.91
11347;BME280;5728;42.722;23.258;2023-01-28T12:32:56;94474.44;;;1.36;90.12
11347;BME280;5728;42.722;23.258;2023-01-28T12:35:38;94481.13;;;1.25;90.56
11347;BME280;5728;42.722;23.258;2023-01-28T12:38:13;94484.06;;;1.52;91.97
11347;BME280;5728;42.722;23.258;2023-01-28T12:40:53;94497.19;;;1.79;90.62
11347;BME280;5728;42.722;23.258;2023-01-28T12:43:25;94488.25;;;1.47;89.89
11347;BME280;5728;42.722;23.258;2023-01-28T12:46:02;94494.88;;;1.33;90.57
11347;BME280;5728;42.722;23.258;2023-01-28T12:48:36;94489.13;;;1.49;90.70
11347;BME280;5728;42.722;23.258;2023-01-28T12:51:09;94503.06;;;1.71;91.27
11347;BME280;5728;42.722;23.258;2023-01-28T12:53:42;94501.94;;;1.52;90.10
11347;BME280;5728;42.722;23.258;2023-01-28T12:56:15;94498.69;;;1.62;89.81
11347;BME280;5728;42.722;23.258;2023-01-28T12:58:47;94503.03;;;1.68;90.13
11347;BME280;5728;42.722;23.258;2023-01-28T13:01:20;94508.19;;;1.74;89.79
11347;BME280;5728;42.722;23.258;2023-01-28T13:03:54;94506.50;;;1.73;89.25
11347;BME280;5728;42.722;23.258;2023-01-28T13:06:28;94490.00;;;1.51;89.47
11347;BME280;5728;42.722;23.258;2023-01-28T13:08:59;94507.09;;;1.55;90.60
11347;BME280;5728;42.722;23.258;2023-01-28T13:11:32;94512.28;;;1.60;90.36
11347;BME280;5728;42.722;23.258;2023-01-28T13:14:00;94510.59;;;1.62;90.01
11347;BME280;5728;42.722;23.258;2023-01-28T13:16:28;94517.59;;;1.73;89.71
11347;BME280;5728;42.722;23.258;2023-01-28T13:19:06;94515.84;;;1.72;90.18
11347;BME280;5728;42.722;23.258;2023-01-28T13:21:34;94523.38;;;1.62;88.87
11347;BME280;5728;42.722;23.258;2023-01-28T13:24:17;94519.88;;;1.55;89.81
11347;BME280;5728;42.722;23.258;2023-01-28T13:26:47;94515.53;;;1.51;90.13
11347;BME280;5728;42.722;23.258;2023-01-28T13:29:29;94523.78;;;1.32;90.32